Ana Sayfa
METAR-TAF:

METAR-TAF

Havaalanları :

Gökçeada, Türkiye

Gökçeada Havalimanı

Enlem: 40-12-04N, Boylam: 25-52-56E, yükseklik: 22 m

Güncel hava durumu gözlemi

Rapor saat 12:50 UTC de 1 saat ve 55 dakika önce yapıldı.
Rüzgar değişken yönden 9 kt
Sıcaklık 10°C
Nem 82%
Basınç 1013 hPa
Görüş mesafesi 10 km veya daha fazla
1100 ft yükseklikte az bulutlu
3000 ft yükseklikte parçalı bulutlu
10000 ft yükseklikte parçalı çok bulutlu

METAR: LTFK 231250Z VRB09KT 9999 FEW011 SCT030 BKN100 10/07 Q1013

Saat: 17:45 (14:45 UTC)

Tahmin

Rapor saat 13:40 UTC de 1 saat ve 5 dakika önce yapıldı.
Ayın 23'si saat 15 UTC'den ayın 23'si saat 24 UTC'ye kadar geçerli Tahmin
Rüzgar kuzeydoğudan 13 kt
Görüş mesafesi 10 km veya daha fazla
1000 ft yükseklikte parçalı bulutlu
3000 ft yükseklikte parçalı çok bulutlu
10000 ft yükseklikte parçalı çok bulutlu

TAF: LTFK 231340Z 2315/2324 04013KT 9999 SCT010 BKN030 BKN100

4.000'den fazla havaalanı için hava durumu gözlemleri ve tahminleri (METAR ve TAF raporları).

Kullanılabilir istasyonlar harita üzerinde sarı ve kırmızı noktalarla gösterilir.

İstasyonun adını görmek için fareyi noktanın üzerinde gezdirin.

Sonrasında hava gözlem ve tahminlerini görmek için tıklayın.

Haritayı değiştirmek için: yaklaştırmak için siyah artı işaretli yeşil düğmeye ve uzaklaştırmak için de eksi işaretli düğmeye hızla tıklayın; bitişik haritalar için yeşil okları kullanın.


METAR-TAF: